createdAt,value
2019-05-03T00:01:45.786Z,11.50
2019-05-03T00:04:16.298Z,7.47
2019-05-03T00:06:45.009Z,8.23
2019-05-03T00:09:16.160Z,10.80
2019-05-03T00:11:45.285Z,9.38
2019-05-03T00:14:14.703Z,14.60
2019-05-03T00:16:45.093Z,11.48
2019-05-03T00:19:13.810Z,12.23
2019-05-03T00:21:42.594Z,7.78
2019-05-03T00:24:11.986Z,9.50
2019-05-03T00:26:42.304Z,9.40
2019-05-03T00:29:12.730Z,6.17
2019-05-03T00:31:42.361Z,9.25
2019-05-03T00:34:15.987Z,10.28
2019-05-03T00:36:46.781Z,7.45
2019-05-03T00:39:17.070Z,10.53
2019-05-03T00:41:46.701Z,10.23
2019-05-03T00:44:17.993Z,7.78
2019-05-03T00:46:46.703Z,9.83
2019-05-03T00:49:15.827Z,11.12
2019-05-03T00:51:45.584Z,10.53
2019-05-03T00:54:14.304Z,12.93
2019-05-03T00:56:44.532Z,11.12
2019-05-03T00:59:14.192Z,10.53
2019-05-03T01:01:42.901Z,6.72
2019-05-03T01:04:11.935Z,8.75
2019-05-03T01:06:42.378Z,10.03
2019-05-03T01:09:14.051Z,11.22
2019-05-03T01:11:42.767Z,14.63
2019-05-03T01:14:12.806Z,11.05
2019-05-03T01:16:42.755Z,9.20
2019-05-03T01:19:12.088Z,14.25
2019-05-03T01:21:42.260Z,15.28
2019-05-03T01:24:12.317Z,7.03
2019-05-03T01:26:42.046Z,10.65
2019-05-03T01:29:12.233Z,9.38
2019-05-03T01:31:42.160Z,17.73
2019-05-03T01:34:12.510Z,16.82
2019-05-03T01:36:42.795Z,13.78
2019-05-03T01:39:12.739Z,8.00
2019-05-03T01:41:41.814Z,5.35
2019-05-03T01:44:12.504Z,13.55
2019-05-03T01:46:42.188Z,12.37
2019-05-03T01:49:12.768Z,15.10
2019-05-03T01:51:44.731Z,16.32
2019-05-03T01:54:13.453Z,12.37
2019-05-03T01:56:55.317Z,7.92
2019-05-03T01:59:13.542Z,11.33
2019-05-03T02:02:02.331Z,7.80
2019-05-03T02:04:39.489Z,14.95
2019-05-03T02:07:08.197Z,16.67
2019-05-03T02:09:36.912Z,12.98
2019-05-03T02:12:06.538Z,8.83
2019-05-03T02:14:35.415Z,9.78
2019-05-03T02:17:05.049Z,16.42
2019-05-03T02:19:34.256Z,10.05
2019-05-03T02:22:03.004Z,15.48
2019-05-03T02:24:32.730Z,20.92
2019-05-03T02:27:02.259Z,11.93
2019-05-03T02:29:32.582Z,12.63
2019-05-03T02:32:05.422Z,12.80
2019-05-03T02:34:35.062Z,12.40
2019-05-03T02:37:03.773Z,15.80
2019-05-03T02:39:33.610Z,12.23
2019-05-03T02:42:07.876Z,11.35
2019-05-03T02:44:35.557Z,12.07
2019-05-03T02:47:22.697Z,12.03
2019-05-03T02:49:56.296Z,11.18
2019-05-03T02:52:36.943Z,14.78
2019-05-03T02:55:08.213Z,12.25
2019-05-03T02:57:36.916Z,8.98
2019-05-03T03:00:11.673Z,17.80
2019-05-03T03:02:41.173Z,12.73
2019-05-03T03:05:10.620Z,11.63
2019-05-03T03:07:40.770Z,12.80
2019-05-03T03:10:10.606Z,12.00
2019-05-03T03:12:46.229Z,16.05
2019-05-03T03:17:45.739Z,13.10
2019-05-03T03:20:16.133Z,14.03
2019-05-03T03:22:47.336Z,10.90
2019-05-03T03:25:17.888Z,10.93
2019-05-03T03:27:48.349Z,10.23
2019-05-03T03:30:40.509Z,11.75
2019-05-03T03:33:17.169Z,14.58
2019-05-03T03:35:48.926Z,14.13
2019-05-03T03:38:15.731Z,13.80
2019-05-03T03:40:46.294Z,13.15
2019-05-03T03:43:17.982Z,13.93
2019-05-03T03:45:48.090Z,13.48
2019-05-03T03:48:20.282Z,13.62
2019-05-03T03:50:51.771Z,12.05
2019-05-03T03:53:23.188Z,13.80
2019-05-03T03:55:56.362Z,13.50
2019-05-03T03:58:27.057Z,13.95
2019-05-03T04:00:56.075Z,15.70
2019-05-03T04:03:26.005Z,16.10
2019-05-03T04:05:55.850Z,15.80
2019-05-03T04:08:25.242Z,11.70
2019-05-03T04:10:55.839Z,15.35
2019-05-03T04:13:26.977Z,16.27
2019-05-03T04:16:17.040Z,14.85
2019-05-03T04:18:48.368Z,13.78
2019-05-03T04:21:17.445Z,9.20
2019-05-03T04:23:46.383Z,10.68
2019-05-03T04:26:16.409Z,14.80
2019-05-03T04:28:45.495Z,17.05
2019-05-03T04:31:15.356Z,11.22
2019-05-03T04:33:45.084Z,13.32
2019-05-03T04:36:15.898Z,15.88
2019-05-03T04:38:45.345Z,11.83
2019-05-03T04:41:16.025Z,9.63
2019-05-03T04:43:46.010Z,13.25
2019-05-03T04:46:19.598Z,10.75
2019-05-03T04:48:48.314Z,8.93
2019-05-03T04:51:16.955Z,12.23
2019-05-03T04:53:47.493Z,14.33
2019-05-03T04:56:17.045Z,12.13
2019-05-03T04:58:46.069Z,13.03
2019-05-03T05:01:15.826Z,12.23
2019-05-03T05:03:45.700Z,9.68
2019-05-03T05:06:15.425Z,10.93
2019-05-03T05:08:46.040Z,11.68
2019-05-03T05:11:15.768Z,12.05
2019-05-03T05:13:45.742Z,13.03
2019-05-03T05:16:16.050Z,10.32
2019-05-03T05:18:46.466Z,15.13
2019-05-03T05:21:25.728Z,18.32
2019-05-03T05:24:02.268Z,14.80
2019-05-03T05:26:35.209Z,9.48
2019-05-03T05:29:07.811Z,9.65
2019-05-03T05:31:36.868Z,12.45
2019-05-03T05:34:08.833Z,11.35
2019-05-03T05:36:37.154Z,14.40
2019-05-03T05:39:08.671Z,14.43
2019-05-03T05:41:38.059Z,15.78
2019-05-03T05:44:06.909Z,12.98
2019-05-03T05:46:37.201Z,14.78
2019-05-03T05:49:08.927Z,13.48
2019-05-03T05:51:39.093Z,16.75
2019-05-03T05:54:07.929Z,12.95
2019-05-03T05:56:50.219Z,13.75
2019-05-03T05:59:36.632Z,11.93
2019-05-03T06:02:07.369Z,13.05
2019-05-03T06:04:36.322Z,16.00
2019-05-03T06:07:06.613Z,17.12
2019-05-03T06:09:39.970Z,8.43
2019-05-03T06:12:10.297Z,13.90
2019-05-03T06:14:45.939Z,11.55
2019-05-03T06:17:16.261Z,8.85
2019-05-03T06:19:49.348Z,11.70
2019-05-03T06:22:20.242Z,16.17
2019-05-03T06:24:54.369Z,15.90
2019-05-03T06:27:26.170Z,10.80
2019-05-03T06:29:56.912Z,12.78
2019-05-03T06:32:27.209Z,16.07
2019-05-03T06:34:57.750Z,14.40
2019-05-03T06:37:37.522Z,12.33
2019-05-03T06:40:07.708Z,15.78
2019-05-03T06:42:36.688Z,12.05
2019-05-03T06:45:10.193Z,16.15
2019-05-03T06:47:40.364Z,13.95
2019-05-03T06:50:10.427Z,9.88
2019-05-03T06:52:39.210Z,18.52
2019-05-03T06:55:10.610Z,14.03
2019-05-03T06:57:45.529Z,23.32
2019-05-03T07:00:16.392Z,12.98
2019-05-03T07:02:46.744Z,11.33
2019-05-03T07:05:24.995Z,12.65
2019-05-03T07:07:55.234Z,13.32
2019-05-03T07:10:25.528Z,10.50
2019-05-03T07:13:04.967Z,15.70
2019-05-03T07:15:35.187Z,7.78
2019-05-03T07:18:05.758Z,9.48
2019-05-03T07:20:45.938Z,11.18
2019-05-03T07:23:15.652Z,14.13
2019-05-03T07:25:44.852Z,18.67
2019-05-03T07:28:15.680Z,17.07
2019-05-03T07:30:45.344Z,15.95
2019-05-03T07:33:18.677Z,13.65
2019-05-03T07:35:47.565Z,13.40
2019-05-03T07:38:16.214Z,12.60
2019-05-03T07:40:44.938Z,13.40
2019-05-03T07:43:15.032Z,13.08
2019-05-03T07:45:44.764Z,11.95
2019-05-03T07:48:15.028Z,12.98
2019-05-03T07:50:44.803Z,10.28
2019-05-03T07:53:15.002Z,18.87
2019-05-03T07:55:52.249Z,16.10
2019-05-03T07:58:22.529Z,8.95
2019-05-03T08:01:05.799Z,14.85
2019-05-03T08:03:24.432Z,12.53
2019-05-03T08:05:55.205Z,9.55
2019-05-03T08:08:25.048Z,15.23
2019-05-03T08:10:55.099Z,16.27
2019-05-03T08:13:25.269Z,14.18
2019-05-03T08:15:55.726Z,9.73
2019-05-03T08:18:25.638Z,21.37
2019-05-03T08:20:55.646Z,16.45
2019-05-03T08:23:29.940Z,10.43
2019-05-03T08:25:56.589Z,12.68
2019-05-03T08:28:25.570Z,12.45
2019-05-03T08:30:58.414Z,16.93
2019-05-03T08:33:28.824Z,15.60
2019-05-03T08:35:57.537Z,14.90
2019-05-03T08:38:26.255Z,20.75
2019-05-03T08:40:56.978Z,13.60
2019-05-03T08:43:25.666Z,13.85
2019-05-03T08:45:55.381Z,13.93
2019-05-03T08:48:25.125Z,15.88
2019-05-03T08:50:55.452Z,19.92
2019-05-03T08:53:25.627Z,20.45
2019-05-03T08:55:55.641Z,10.90
2019-05-03T08:58:25.816Z,17.23
2019-05-03T09:00:55.336Z,17.90
2019-05-03T09:03:25.083Z,16.97
2019-05-03T09:05:56.484Z,11.93
2019-05-03T09:08:24.954Z,11.78
2019-05-03T09:10:59.064Z,12.23
2019-05-03T09:13:29.360Z,12.90
2019-05-03T09:15:59.330Z,9.90
2019-05-03T09:18:28.315Z,10.90
2019-05-03T09:20:57.033Z,18.10
2019-05-03T09:23:26.136Z,8.40
2019-05-03T09:25:56.233Z,10.72
2019-05-03T09:28:28.817Z,11.68
2019-05-03T09:30:55.856Z,8.48
2019-05-03T09:33:25.009Z,9.78
2019-05-03T09:35:55.026Z,7.80
2019-05-03T09:38:25.666Z,6.90
2019-05-03T09:40:54.653Z,7.95
2019-05-03T09:43:25.043Z,8.73
2019-05-03T09:45:54.858Z,9.68
2019-05-03T09:48:25.496Z,10.28
2019-05-03T09:50:55.585Z,10.95
2019-05-03T09:53:26.429Z,8.35
2019-05-03T09:55:55.720Z,11.18
2019-05-03T09:58:26.369Z,8.80
2019-05-03T10:00:55.585Z,10.72
2019-05-03T10:03:24.954Z,7.90
2019-05-03T10:05:55.375Z,5.37
2019-05-03T10:08:25.430Z,5.95
2019-05-03T10:11:15.518Z,7.90
2019-05-03T10:13:47.376Z,5.12
2019-05-03T10:16:15.593Z,5.90
2019-05-03T10:18:45.957Z,3.35
2019-05-03T10:21:15.227Z,12.30
2019-05-03T10:23:45.160Z,9.98
2019-05-03T10:26:15.298Z,10.48
2019-05-03T10:28:44.690Z,7.75
2019-05-03T10:31:14.648Z,7.87
2019-05-03T10:33:54.841Z,12.03
2019-05-03T10:36:24.981Z,9.40
2019-05-03T10:38:55.382Z,8.85
2019-05-03T10:41:25.686Z,9.00
2019-05-03T10:43:56.373Z,8.00
2019-05-03T10:46:25.227Z,9.68
2019-05-03T10:48:55.806Z,5.62
2019-05-03T10:51:26.420Z,9.53
2019-05-03T10:53:56.958Z,10.63
2019-05-03T10:56:37.547Z,13.90
2019-05-03T10:59:10.742Z,8.08
2019-05-03T11:01:45.274Z,11.65
2019-05-03T11:04:14.739Z,9.85
2019-05-03T11:06:45.712Z,6.35
2019-05-03T11:09:15.256Z,13.65
2019-05-03T11:11:45.316Z,5.20
2019-05-03T11:14:14.981Z,9.68
2019-05-03T11:16:46.315Z,5.40
2019-05-03T11:19:15.468Z,6.45
2019-05-03T11:21:45.474Z,8.98
2019-05-03T11:24:14.871Z,7.75
2019-05-03T11:26:45.658Z,7.65
2019-05-03T11:29:17.679Z,4.67
2019-05-03T11:32:00.217Z,3.90
2019-05-03T11:34:37.483Z,5.50
2019-05-03T11:37:07.774Z,6.62
2019-05-03T11:39:36.812Z,7.12
2019-05-03T11:42:06.207Z,7.78
2019-05-03T11:44:38.565Z,8.00
2019-05-03T11:47:09.511Z,6.20
2019-05-03T11:49:39.436Z,10.48
2019-05-03T11:52:08.462Z,8.80
2019-05-03T11:54:37.364Z,6.30
2019-05-03T11:57:26.417Z,5.55
2019-05-03T11:59:55.493Z,7.53
2019-05-03T12:02:28.962Z,6.60
2019-05-03T12:04:59.829Z,7.03
2019-05-03T12:07:39.586Z,7.78
2019-05-03T12:10:17.127Z,10.13
2019-05-03T12:12:55.407Z,8.80
2019-05-03T12:15:24.626Z,7.00
2019-05-03T12:17:59.231Z,5.03
2019-05-03T12:20:30.688Z,6.95
2019-05-03T12:23:00.022Z,4.95
2019-05-03T12:25:29.907Z,10.28
2019-05-03T12:27:59.414Z,6.87
2019-05-03T12:30:28.126Z,10.15
2019-05-03T12:32:57.057Z,7.60
2019-05-03T12:35:26.134Z,10.23
2019-05-03T12:37:55.535Z,10.70
2019-05-03T12:40:25.480Z,13.30
2019-05-03T12:42:55.417Z,15.85
2019-05-03T12:45:25.103Z,8.53
2019-05-03T12:47:55.928Z,10.08
2019-05-03T12:50:25.564Z,9.58
2019-05-03T12:52:55.444Z,6.90
2019-05-03T12:55:24.936Z,8.38
2019-05-03T12:57:55.748Z,7.12
2019-05-03T13:00:29.822Z,11.68
2019-05-03T13:03:09.457Z,14.50
2019-05-03T13:05:38.166Z,6.35
2019-05-03T13:08:32.430Z,8.43
2019-05-03T13:11:01.470Z,8.53
2019-05-03T13:13:30.561Z,7.87
2019-05-03T13:15:59.406Z,7.65
2019-05-03T13:18:28.356Z,10.88
2019-05-03T13:20:57.091Z,12.18
2019-05-03T13:23:26.079Z,10.35
2019-05-03T13:25:54.851Z,8.80
2019-05-03T13:28:25.454Z,7.05
2019-05-03T13:30:54.669Z,6.17
2019-05-03T13:33:23.547Z,9.50
2019-05-03T13:35:52.238Z,7.58
2019-05-03T13:38:21.171Z,8.23
2019-05-03T13:40:49.898Z,6.55
2019-05-03T13:43:18.539Z,10.90
2019-05-03T13:45:47.910Z,8.93
2019-05-03T13:48:20.872Z,8.53
2019-05-03T13:50:46.930Z,5.03
2019-05-03T13:53:16.136Z,8.80
2019-05-03T13:55:45.206Z,8.30
2019-05-03T13:58:14.818Z,14.23
2019-05-03T14:00:45.367Z,9.05
2019-05-03T14:03:15.237Z,7.50
2019-05-03T14:05:44.675Z,15.98
2019-05-03T14:08:15.689Z,11.10
2019-05-03T14:10:45.512Z,6.35
2019-05-03T14:13:14.554Z,9.80
2019-05-03T14:15:45.313Z,6.78
2019-05-03T14:18:15.308Z,8.45
2019-05-03T14:20:59.601Z,8.83
2019-05-03T14:23:28.679Z,7.70
2019-05-03T14:25:57.560Z,8.33
2019-05-03T14:28:26.269Z,6.12
2019-05-03T14:30:55.049Z,8.50
2019-05-03T14:33:24.840Z,8.80
2019-05-03T14:35:54.854Z,3.65
2019-05-03T14:38:25.455Z,6.10
2019-05-03T14:40:55.038Z,8.33
2019-05-03T14:43:24.882Z,7.47
2019-05-03T14:45:55.005Z,5.85
2019-05-03T14:48:25.417Z,4.25
2019-05-03T14:50:57.267Z,5.62
2019-05-03T14:53:25.530Z,4.47
2019-05-03T14:55:56.123Z,6.22
2019-05-03T14:58:38.741Z,6.58
2019-05-03T15:01:09.328Z,4.67
2019-05-03T15:03:38.049Z,6.08
2019-05-03T15:06:06.941Z,7.08
2019-05-03T15:08:35.584Z,6.03
2019-05-03T15:11:05.317Z,7.37
2019-05-03T15:13:34.973Z,6.30
2019-05-03T15:16:05.266Z,4.35
2019-05-03T15:18:34.815Z,7.15
2019-05-03T15:21:05.493Z,5.53
2019-05-03T15:23:34.809Z,9.68
2019-05-03T15:26:05.150Z,6.17
2019-05-03T15:28:35.568Z,6.08
2019-05-03T15:31:05.020Z,5.20
2019-05-03T15:33:35.320Z,7.95
2019-05-03T15:36:04.896Z,14.68
2019-05-03T15:38:34.583Z,11.40
2019-05-03T15:41:05.440Z,3.37
2019-05-03T15:43:45.459Z,7.10
2019-05-03T15:46:31.075Z,7.25
2019-05-03T15:49:01.880Z,4.97
2019-05-03T15:51:30.603Z,6.80
2019-05-03T15:53:59.717Z,4.00
2019-05-03T15:56:28.476Z,3.55
2019-05-03T15:58:57.119Z,6.45
2019-05-03T16:01:25.914Z,6.95
2019-05-03T16:03:55.647Z,5.95
2019-05-03T16:06:24.963Z,7.22
2019-05-03T16:08:55.270Z,4.08
2019-05-03T16:11:25.366Z,8.28
2019-05-03T16:13:55.373Z,4.58
2019-05-03T16:16:24.836Z,5.85
2019-05-03T16:18:54.099Z,5.33
2019-05-03T16:21:25.040Z,3.12
2019-05-03T16:23:55.499Z,6.83
2019-05-03T16:26:25.162Z,3.90
2019-05-03T16:28:55.735Z,4.78
2019-05-03T16:31:26.600Z,4.70
2019-05-03T16:33:55.712Z,4.05
2019-05-03T16:36:24.528Z,6.33
2019-05-03T16:38:55.284Z,4.85
2019-05-03T16:41:24.872Z,4.40
2019-05-03T16:43:54.295Z,10.40
2019-05-03T16:46:23.005Z,8.23
2019-05-03T16:48:51.818Z,9.38
2019-05-03T16:51:21.777Z,2.85
2019-05-03T16:53:50.872Z,8.90
2019-05-03T16:56:20.620Z,5.62
2019-05-03T16:58:49.553Z,4.28
2019-05-03T17:01:18.354Z,9.15
2019-05-03T17:03:50.116Z,3.65
2019-05-03T17:06:34.857Z,6.87
2019-05-03T17:09:15.474Z,4.58
2019-05-03T17:11:46.157Z,5.62
2019-05-03T17:14:15.513Z,3.95
2019-05-03T17:16:45.445Z,3.95
2019-05-03T17:19:14.750Z,5.30
2019-05-03T17:21:45.301Z,4.20
2019-05-03T17:24:15.494Z,8.93
2019-05-03T17:26:45.003Z,6.33
2019-05-03T17:29:13.729Z,3.72
2019-05-03T17:31:44.487Z,8.00
2019-05-03T17:34:14.493Z,7.50
2019-05-03T17:36:44.966Z,2.85
2019-05-03T17:39:32.349Z,8.95
2019-05-03T17:44:54.561Z,7.75
2019-05-03T17:47:25.501Z,7.47
2019-05-03T17:49:54.631Z,6.00
2019-05-03T17:52:41.992Z,8.93
2019-05-03T17:55:24.460Z,6.15
2019-05-03T17:58:04.485Z,6.85
2019-05-03T18:00:52.900Z,6.87
2019-05-03T18:03:23.401Z,8.00
2019-05-03T18:05:53.681Z,5.83
2019-05-03T18:08:25.008Z,5.03
2019-05-03T18:10:55.898Z,5.47
2019-05-03T18:13:24.821Z,9.43
2019-05-03T18:15:54.358Z,8.35
2019-05-03T18:18:24.705Z,7.22
2019-05-03T18:20:55.491Z,8.60
2019-05-03T18:23:24.686Z,7.37
2019-05-03T18:25:54.885Z,8.63
2019-05-03T18:28:25.000Z,9.05
2019-05-03T18:30:54.724Z,6.10
2019-05-03T18:33:24.698Z,6.20
2019-05-03T18:35:55.048Z,9.95
2019-05-03T18:38:25.390Z,8.08
2019-05-03T18:40:55.593Z,8.03
2019-05-03T18:43:26.614Z,5.45
2019-05-03T18:46:06.357Z,4.62
2019-05-03T18:48:35.001Z,7.55
2019-05-03T18:51:05.327Z,9.55
2019-05-03T18:53:34.585Z,9.40
2019-05-03T18:56:04.603Z,5.30
2019-05-03T18:58:33.510Z,11.45
2019-05-03T19:01:03.057Z,5.70
2019-05-03T19:03:31.857Z,8.08
2019-05-03T19:06:09.043Z,8.28
2019-05-03T19:08:42.143Z,7.00
2019-05-03T19:11:15.022Z,7.00
2019-05-03T19:13:47.868Z,10.28
2019-05-03T19:16:18.165Z,8.97
2019-05-03T19:18:46.820Z,6.55
2019-05-03T19:21:15.894Z,7.33
2019-05-03T19:23:44.843Z,9.28
2019-05-03T19:26:14.454Z,6.00
2019-05-03T19:28:44.456Z,9.58
2019-05-03T19:31:13.494Z,10.50
2019-05-03T19:33:42.383Z,10.45
2019-05-03T19:36:11.695Z,6.55
2019-05-03T19:38:40.641Z,7.80
2019-05-03T19:41:09.633Z,11.73
2019-05-03T19:43:39.268Z,8.48
2019-05-03T19:46:08.263Z,11.12
2019-05-03T19:48:36.954Z,8.13
2019-05-03T19:51:06.549Z,9.25
2019-05-03T19:53:37.774Z,7.58
2019-05-03T19:56:07.299Z,10.68
2019-05-03T19:58:37.536Z,13.18
2019-05-03T20:01:07.842Z,10.78
2019-05-03T20:03:41.568Z,10.55
2019-05-03T20:06:20.823Z,8.53
2019-05-03T20:08:54.207Z,10.05
2019-05-03T20:11:25.052Z,12.37
2019-05-03T20:13:55.222Z,10.15
2019-05-03T20:16:24.225Z,10.60
2019-05-03T20:18:55.395Z,8.83
2019-05-03T20:21:25.283Z,9.40
2019-05-03T20:23:55.550Z,11.48
2019-05-03T20:26:25.298Z,11.12
2019-05-03T20:28:55.313Z,9.48
2019-05-03T20:31:25.287Z,11.12
2019-05-03T20:33:54.887Z,11.70
2019-05-03T20:36:24.674Z,13.40
2019-05-03T20:38:55.086Z,12.73
2019-05-03T20:41:25.555Z,8.83
2019-05-03T20:44:00.037Z,16.37
2019-05-03T20:46:40.583Z,17.98
2019-05-03T20:49:11.419Z,10.85
2019-05-03T20:53:25.145Z,12.28
2019-05-03T20:55:56.203Z,9.80
2019-05-03T20:58:26.967Z,8.88
2019-05-03T21:00:58.689Z,7.62
2019-05-03T21:03:29.087Z,12.63
2019-05-03T21:06:02.216Z,13.45
2019-05-03T21:08:34.632Z,10.10
2019-05-03T21:11:07.558Z,9.33
2019-05-03T21:13:41.892Z,8.93
2019-05-03T21:16:15.686Z,14.93
2019-05-03T21:19:00.028Z,12.60
2019-05-03T21:21:32.328Z,12.40
2019-05-03T21:24:07.021Z,13.22
2019-05-03T21:26:39.066Z,13.53
2019-05-03T21:29:10.000Z,13.65
2019-05-03T21:31:40.928Z,11.97
2019-05-03T21:34:11.705Z,12.37
2019-05-03T21:36:42.474Z,9.33
2019-05-03T21:39:14.614Z,11.08
2019-05-03T21:41:45.429Z,11.00
2019-05-03T21:44:31.307Z,11.43
2019-05-03T21:47:04.932Z,13.15
2019-05-03T21:49:45.895Z,15.78
2019-05-03T21:52:17.134Z,17.90
2019-05-03T21:54:47.455Z,13.50
2019-05-03T21:57:19.309Z,16.00
2019-05-03T21:59:49.617Z,12.45
2019-05-03T22:02:21.626Z,17.23
2019-05-03T22:04:51.976Z,19.65
2019-05-03T22:07:22.827Z,13.55
2019-05-03T22:09:54.486Z,15.48
2019-05-03T22:12:26.171Z,11.05
2019-05-03T22:14:58.127Z,13.32
2019-05-03T22:17:46.839Z,14.95
2019-05-03T22:20:35.119Z,16.67
2019-05-03T22:23:10.358Z,9.23
2019-05-03T22:25:42.317Z,14.20
2019-05-03T22:28:15.546Z,13.38
2019-05-03T22:30:46.137Z,15.85
2019-05-03T22:33:17.793Z,13.95
2019-05-03T22:35:49.104Z,14.78
2019-05-03T22:38:19.826Z,11.73
2019-05-03T22:40:50.137Z,14.25
2019-05-03T22:43:22.055Z,19.80
2019-05-03T22:45:52.377Z,13.90
2019-05-03T22:48:24.987Z,13.80
2019-05-03T22:50:55.910Z,15.72
2019-05-03T22:53:26.181Z,14.25
2019-05-03T22:55:56.427Z,15.68
2019-05-03T22:58:27.046Z,13.58
2019-05-03T23:00:57.373Z,13.50
2019-05-03T23:03:29.565Z,16.32
2019-05-03T23:06:00.851Z,17.10
2019-05-03T23:08:34.570Z,15.03
2019-05-03T23:11:05.299Z,15.80
2019-05-03T23:13:36.263Z,11.60
2019-05-03T23:16:06.608Z,15.98
2019-05-03T23:18:39.871Z,12.58
2019-05-03T23:21:11.786Z,15.68
2019-05-03T23:23:48.932Z,13.80
2019-05-03T23:26:19.769Z,15.20
2019-05-03T23:28:52.743Z,12.98
2019-05-03T23:31:24.998Z,11.83
2019-05-03T23:33:55.950Z,15.60
2019-05-03T23:36:33.150Z,16.55
2019-05-03T23:39:00.490Z,13.95
2019-05-03T23:44:02.064Z,17.48
2019-05-03T23:46:36.662Z,17.20
2019-05-03T23:49:08.023Z,14.15
2019-05-03T23:51:52.374Z,14.87
2019-05-03T23:56:54.738Z,18.05
2019-05-03T23:59:25.265Z,16.90
